LHSM/SOB METAR and TAF weather

Enter ICAO airport designator
Station Type Date Time Source
LHSM METAR 2019/02/17 07:15 UTC NOAA

LHSM 170715Z 00000KT 0200 FZFG NSC M02/M02 Q1030


Station Type Date Time Source
LHSM Decoded METAR 2019/02/17 07:15 UTC NOAA

Station name not available
Feb 17, 2019 - 02:15 AM EST / 2019.02.17 0715 UTC
Wind: Calm:0
Visibility: less than 1 mile:0
Weather: freezing fog
Temperature: 28 F (-2 C)
Dew Point: 28 F (-2 C)
Relative Humidity: 100%
Pressure (altimeter): 30.42 in. Hg (1030 hPa)
ob: LHSM 170715Z 00000KT 0200 FZFG NSC M02/M02 Q1030
cycle: 7

Station Type Date Time Source
LHSM TAF UTC NOAA

Error!


Example: see airport list